Time;durP1;ratioP1;P1;durP2;ratioP2;P2;SDS_P1;SDS_P2;PMS_P1;PMS_P2;Temp;Humidity;BMP_temperature;BMP_pressure;BME280_temperature;BME280_humidity;BME280_pressure;Samples;Min_cycle;Max_cycle;Signal;HPM_P1;HPM_P2
2022/02/03 00:01:54;;;;;;;10.30;6.20;;;4.60;99.90;;;;;;5001614;28;20459;-54
2022/02/03 00:04:23;;;;;;;9.10;5.70;;;4.60;99.90;;;;;;5001882;28;20436;-54
2022/02/03 00:06:58;;;;;;;11.23;6.00;;;4.70;99.90;;;;;;5000926;28;20503;-55
2022/02/03 00:26:16;;;;;;;10.20;6.50;;;4.60;99.90;;;;;;4991649;28;20459;-54
2022/02/03 00:28:45;;;;;;;10.60;7.07;;;4.50;99.90;;;;;;5004974;28;20866;-55
2022/02/03 00:31:32;;;;;;;13.77;7.20;;;4.50;99.90;;;;;;5004960;28;20547;-54
2022/02/03 00:34:05;;;;;;;13.70;7.43;;;4.50;99.90;;;;;;5004386;28;20426;-55
2022/02/03 00:37:46;;;;;;;9.43;5.60;;;4.40;99.90;;;;;;5001430;28;20505;-57
2022/02/03 00:50:35;;;;;;;11.00;6.40;;;4.40;99.90;;;;;;5005179;28;20509;-55
2022/02/03 00:53:02;;;;;;;8.57;6.10;;;4.40;99.90;;;;;;5000584;28;20443;-55
2022/02/03 00:55:35;;;;;;;12.23;6.53;;;4.40;99.90;;;;;;5005207;28;20474;-55
2022/02/03 00:58:04;;;;;;;13.40;7.50;;;4.40;99.90;;;;;;5003712;28;20526;-54
2022/02/03 01:00:33;;;;;;;14.17;7.37;;;4.40;99.90;;;;;;5004603;28;20518;-53
2022/02/03 01:03:17;;;;;;;12.00;6.60;;;4.40;99.90;;;;;;4999825;28;20517;-55
2022/02/03 01:05:46;;;;;;;12.00;7.40;;;4.40;99.90;;;;;;5012346;28;20515;-54
2022/02/03 01:08:21;;;;;;;12.30;7.57;;;4.30;99.90;;;;;;4994853;28;20418;-57
2022/02/03 01:10:56;;;;;;;11.10;6.73;;;4.30;99.90;;;;;;4998125;28;20917;-59
2022/02/03 01:48:18;;;;;;;9.50;6.10;;;4.30;99.90;;;;;;4997833;28;21015;-56
2022/02/03 01:53:32;;;;;;;8.80;5.00;;;4.30;99.90;;;;;;5001661;28;20436;-56
2022/02/03 01:56:05;;;;;;;6.60;4.77;;;4.30;99.90;;;;;;5005871;28;20530;-58
2022/02/03 01:58:54;;;;;;;9.73;5.57;;;4.30;99.90;;;;;;4999400;28;20462;-55
2022/02/03 02:01:26;;;;;;;14.30;7.30;;;4.20;99.90;;;;;;5000337;28;20460;-56
2022/02/03 02:04:09;;;;;;;10.17;6.73;;;4.30;99.90;;;;;;5002809;28;20443;-56
2022/02/03 02:06:56;;;;;;;8.60;5.47;;;4.30;99.90;;;;;;5006111;28;20442;-56
2022/02/03 02:10:16;;;;;;;9.10;5.70;;;4.30;99.90;;;;;;4995663;28;20531;-55
2022/02/03 02:13:44;;;;;;;11.90;6.47;;;4.30;99.90;;;;;;5004378;28;20732;-56
2022/02/03 02:44:06;;;;;;;10.87;6.13;;;4.10;99.90;;;;;;5012323;22;20519;-58
2022/02/03 02:46:53;;;;;;;17.80;6.77;;;4.10;99.90;;;;;;4999350;28;20950;-58
2022/02/03 02:49:48;;;;;;;11.43;5.57;;;4.10;99.90;;;;;;5005951;28;20845;-58
2022/02/03 02:52:22;;;;;;;11.97;6.03;;;4.10;99.90;;;;;;5001008;28;20431;-58
2022/02/03 02:55:18;;;;;;;61.60;7.07;;;4.00;99.90;;;;;;4995143;28;20472;-56
2022/02/03 03:03:54;;;;;;;105.70;8.30;;;4.00;99.90;;;;;;4999532;28;20501;-59
2022/02/03 03:37:32;;;;;;;37.17;5.33;;;4.00;99.90;;;;;;4992326;28;20475;-57
2022/02/03 03:40:03;;;;;;;6.77;3.93;;;3.90;99.90;;;;;;4992741;28;20983;-57
2022/02/03 03:42:31;;;;;;;11.37;4.30;;;3.90;99.90;;;;;;4992578;28;20483;-58
2022/02/03 03:45:00;;;;;;;8.43;3.50;;;3.90;99.90;;;;;;4991615;28;20925;-59
2022/02/03 03:47:30;;;;;;;5.20;3.90;;;3.90;99.90;;;;;;4990571;28;20531;-58
2022/02/03 03:50:04;;;;;;;9.63;4.33;;;3.90;99.90;;;;;;4993450;28;20845;-58
2022/02/03 03:52:31;;;;;;;7.73;4.63;;;3.90;99.90;;;;;;4992332;28;20537;-59
2022/02/03 03:55:22;;;;;;;10.30;4.50;;;3.90;99.90;;;;;;4993937;28;20442;-59
2022/02/03 04:31:17;;;;;;;7.27;4.33;;;3.90;99.90;;;;;;4992915;28;20501;-58
2022/02/03 04:43:23;;;;;;;13.43;6.00;;;4.00;99.90;;;;;;4991479;28;20465;-59
2022/02/03 04:51:36;;;;;;;10.03;6.00;;;4.00;99.90;;;;;;4992729;28;20436;-58
2022/02/03 05:00:54;;;;;;;10.27;6.13;;;4.00;99.90;;;;;;4983531;28;20613;-58
2022/02/03 05:09:35;;;;;;;9.20;6.07;;;4.10;99.90;;;;;;4984644;28;20219;-58
2022/02/03 05:13:01;;;;;;;7.27;5.20;;;4.10;99.90;;;;;;4987947;28;20769;-60
2022/02/03 05:16:54;;;;;;;8.13;5.33;;;4.00;99.90;;;;;;4995685;28;20506;-60
2022/02/03 05:48:50;;;;;;;11.33;5.70;;;4.00;99.90;;;;;;4982513;28;20440;-59
2022/02/03 05:51:45;;;;;;;11.00;6.40;;;4.00;99.90;;;;;;4983693;28;20435;-58
2022/02/03 06:05:22;;;;;;;9.03;5.57;;;3.90;99.90;;;;;;4978652;28;20447;-59
2022/02/03 06:23:58;;;;;;;13.47;6.90;;;3.90;99.90;;;;;;4989074;28;20967;-59
2022/02/03 06:29:11;;;;;;;17.97;8.03;;;3.90;99.90;;;;;;4990195;28;20434;-58
2022/02/03 06:31:39;;;;;;;13.43;6.73;;;3.90;99.90;;;;;;4993821;28;20463;-59
2022/02/03 06:34:06;;;;;;;14.90;7.30;;;3.90;99.90;;;;;;4988122;28;20541;-59
2022/02/03 06:36:33;;;;;;;17.50;7.90;;;3.90;99.90;;;;;;4997332;28;20481;-59
2022/02/03 06:38:58;;;;;;;17.10;8.07;;;3.90;99.90;;;;;;4989896;28;20538;-59
2022/02/03 06:41:24;;;;;;;16.77;8.60;;;3.90;99.90;;;;;;4983270;28;20871;-60
2022/02/03 06:43:50;;;;;;;18.10;8.40;;;3.90;99.90;;;;;;4984006;28;20267;-58
2022/02/03 06:46:16;;;;;;;25.03;8.90;;;3.90;99.90;;;;;;4987782;28;20436;-59
2022/02/03 06:48:49;;;;;;;17.60;7.93;;;3.90;99.90;;;;;;4989792;28;20250;-60
2022/02/03 06:51:31;;;;;;;18.33;8.17;;;3.90;99.90;;;;;;4995516;28;20454;-59
2022/02/03 06:54:03;;;;;;;21.03;9.30;;;3.80;99.90;;;;;;4989994;28;20440;-58
2022/02/03 06:56:46;;;;;;;21.23;8.20;;;3.90;99.90;;;;;;4994808;28;20492;-60
2022/02/03 06:59:15;;;;;;;18.27;8.70;;;3.90;99.90;;;;;;4999644;28;20447;-59
2022/02/03 07:01:43;;;;;;;21.60;9.10;;;3.90;99.90;;;;;;4999239;28;20490;-60
2022/02/03 07:04:20;;;;;;;23.33;9.57;;;3.90;99.90;;;;;;4995167;28;20447;-60
2022/02/03 07:06:46;;;;;;;17.87;8.10;;;3.90;99.90;;;;;;4986412;28;20555;-61
2022/02/03 07:09:12;;;;;;;20.73;9.27;;;3.90;99.90;;;;;;4990558;28;20531;-59
2022/02/03 07:11:39;;;;;;;19.87;8.37;;;3.90;99.90;;;;;;4988665;28;20184;-59
2022/02/03 07:14:07;;;;;;;22.27;10.00;;;3.90;99.90;;;;;;4987215;28;20219;-59
2022/02/03 07:16:36;;;;;;;20.07;9.40;;;3.90;99.90;;;;;;4994645;28;20450;-59
2022/02/03 07:19:02;;;;;;;17.03;8.00;;;3.90;99.90;;;;;;4988076;28;20463;-59
2022/02/03 07:21:27;;;;;;;18.47;8.33;;;3.80;99.90;;;;;;4988928;28;20436;-59
2022/02/03 07:23:53;;;;;;;19.77;9.50;;;3.80;99.90;;;;;;4985249;28;20474;-59
2022/02/03 07:26:19;;;;;;;21.27;9.73;;;3.80;99.90;;;;;;4984509;28;20211;-58
2022/02/03 07:28:45;;;;;;;16.07;8.80;;;3.80;99.90;;;;;;4988322;28;20177;-59
2022/02/03 07:31:10;;;;;;;23.30;10.53;;;3.80;99.90;;;;;;4986583;28;20189;-59
2022/02/03 07:33:36;;;;;;;20.40;10.13;;;3.90;99.90;;;;;;4985905;28;20211;-58
2022/02/03 07:36:03;;;;;;;16.87;8.63;;;3.90;99.90;;;;;;4988084;28;20188;-57
2022/02/03 07:38:29;;;;;;;19.33;9.63;;;3.90;99.90;;;;;;4978071;28;20275;-59
2022/02/03 07:40:54;;;;;;;14.97;7.03;;;3.90;99.90;;;;;;4985471;28;20519;-59
2022/02/03 07:43:21;;;;;;;21.27;8.53;;;4.00;99.90;;;;;;4988644;28;20215;-58
2022/02/03 07:45:47;;;;;;;16.17;7.43;;;4.00;99.90;;;;;;4988072;28;20174;-61
2022/02/03 07:48:12;;;;;;;14.53;7.63;;;4.00;99.90;;;;;;4984098;28;20440;-60
2022/02/03 07:50:38;;;;;;;16.17;7.67;;;4.00;99.90;;;;;;4982940;28;20675;-58
2022/02/03 07:53:04;;;;;;;18.90;7.97;;;4.10;99.90;;;;;;4974937;28;20197;-60
2022/02/03 07:55:31;;;;;;;16.63;8.10;;;4.10;99.90;;;;;;4974013;28;20964;-60
2022/02/03 07:57:57;;;;;;;16.37;7.97;;;4.10;99.90;;;;;;4978608;28;20184;-60
2022/02/03 08:00:24;;;;;;;14.63;7.37;;;4.20;99.90;;;;;;4979371;28;20939;-60
2022/02/03 08:02:50;;;;;;;13.70;7.57;;;4.20;99.90;;;;;;4984734;28;20200;-61
2022/02/03 08:05:18;;;;;;;14.40;7.60;;;4.20;99.90;;;;;;4980983;28;20431;-61
2022/02/03 08:07:55;;;;;;;13.60;7.30;;;4.20;99.90;;;;;;4983631;28;20180;-61
2022/02/03 08:10:39;;;;;;;18.20;8.27;;;4.20;99.90;;;;;;4978499;28;20972;-61
2022/02/03 08:13:07;;;;;;;20.50;8.40;;;4.30;99.90;;;;;;4988219;28;20466;-61
2022/02/03 08:15:35;;;;;;;13.20;6.67;;;4.30;99.90;;;;;;4986831;28;20443;-61
2022/02/03 08:18:07;;;;;;;13.47;7.63;;;4.40;99.90;;;;;;4981641;28;21057;-62
2022/02/03 08:20:33;;;;;;;19.03;8.10;;;4.40;99.90;;;;;;4978736;28;21174;-60
2022/02/03 08:29:15;;;;;;;15.90;6.80;;;4.60;99.90;;;;;;4978728;28;20444;-60
2022/02/03 08:31:41;;;;;;;12.47;6.30;;;4.70;99.90;;;;;;4982239;28;20474;-61
2022/02/03 08:34:11;;;;;;;13.20;7.10;;;4.80;99.90;;;;;;4984464;28;20850;-61
2022/02/03 08:36:37;;;;;;;10.70;6.50;;;4.80;99.90;;;;;;4985468;28;20543;-60
2022/02/03 08:39:07;;;;;;;7.77;4.80;;;4.90;99.90;;;;;;4981709;28;20924;-61
2022/02/03 08:41:33;;;;;;;6.53;4.67;;;4.90;99.90;;;;;;4984771;28;20488;-61
2022/02/03 08:43:59;;;;;;;5.33;4.10;;;5.00;99.90;;;;;;4987589;28;20471;-61
2022/02/03 08:46:26;;;;;;;6.57;4.53;;;5.00;99.90;;;;;;4980876;28;20779;-60
2022/02/03 08:48:53;;;;;;;10.00;5.40;;;5.00;99.90;;;;;;4985583;28;20291;-61
2022/02/03 08:51:19;;;;;;;7.70;4.40;;;5.10;99.90;;;;;;4980056;28;20510;-60
2022/02/03 08:53:50;;;;;;;6.37;5.03;;;5.10;99.90;;;;;;4986647;28;20517;-61
2022/02/03 09:39:48;;;;;;;5.30;4.20;;;5.80;99.90;;;;;;4982930;28;20491;-61
2022/02/03 10:01:07;;;;;;;6.30;4.37;;;6.00;99.90;;;;;;4983347;28;20463;-61
2022/02/03 10:06:18;;;;;;;5.03;3.47;;;6.10;99.90;;;;;;4979879;28;20856;-59
2022/02/03 10:08:49;;;;;;;5.00;3.87;;;6.20;99.90;;;;;;4982548;28;20527;-61
2022/02/03 10:11:19;;;;;;;4.53;3.70;;;6.20;99.90;;;;;;4975806;28;20433;-60
2022/02/03 10:13:46;;;;;;;4.60;3.60;;;6.30;99.90;;;;;;4980340;28;20487;-62
2022/02/03 10:16:14;;;;;;;4.30;3.67;;;6.30;99.90;;;;;;4984741;28;20432;-61
2022/02/03 10:18:41;;;;;;;5.10;3.50;;;6.40;99.90;;;;;;4983487;28;20817;-60
2022/02/03 10:21:09;;;;;;;6.47;3.20;;;6.50;99.90;;;;;;4979071;28;20432;-60
2022/02/03 10:23:58;;;;;;;4.80;3.80;;;6.50;99.90;;;;;;4981253;28;20996;-60
2022/02/03 10:26:36;;;;;;;3.97;3.10;;;6.60;99.90;;;;;;4980965;28;20424;-60
2022/02/03 10:29:04;;;;;;;4.10;3.50;;;6.70;99.90;;;;;;4980693;28;20427;-59
2022/02/03 10:31:38;;;;;;;3.43;3.10;;;6.70;99.90;;;;;;4981498;28;20678;-57
2022/02/03 10:34:10;;;;;;;10.83;3.43;;;6.80;99.90;;;;;;4978758;28;21240;-60
2022/02/03 10:37:23;;;;;;;4.43;3.37;;;6.80;99.90;;;;;;4983408;28;20530;-60
2022/02/03 10:48:14;;;;;;;3.97;3.20;;;7.00;99.90;;;;;;4983198;28;20468;-63
2022/02/03 11:01:36;;;;;;;3.00;2.70;;;7.10;99.90;;;;;;4977286;28;20437;-62
2022/02/03 11:04:31;;;;;;;3.00;2.80;;;7.10;99.90;;;;;;5003732;28;20440;-62
2022/02/03 11:06:59;;;;;;;3.30;2.97;;;7.10;99.90;;;;;;4987637;28;20448;-62
2022/02/03 11:09:43;;;;;;;2.93;2.47;;;7.10;99.90;;;;;;4981978;28;21062;-63
2022/02/03 11:12:16;;;;;;;3.80;3.17;;;7.20;99.90;;;;;;4987995;28;20645;-62
2022/02/03 11:14:43;;;;;;;4.53;2.93;;;7.30;99.90;;;;;;4986909;28;20420;-62
2022/02/03 11:17:10;;;;;;;3.97;3.57;;;7.40;99.90;;;;;;4984227;28;20941;-62
2022/02/03 11:19:37;;;;;;;3.33;2.93;;;7.40;99.90;;;;;;4984477;28;20482;-62
2022/02/03 11:22:08;;;;;;;4.27;3.67;;;7.40;99.90;;;;;;4983250;28;20956;-62
2022/02/03 11:24:40;;;;;;;3.50;3.20;;;7.40;99.90;;;;;;4982487;28;20952;-63
2022/02/03 11:27:51;;;;;;;6.77;4.27;;;7.40;99.90;;;;;;4985633;28;20436;-63
2022/02/03 11:46:46;;;;;;;4.90;3.47;;;7.70;99.90;;;;;;4989118;28;20665;-62
2022/02/03 11:52:12;;;;;;;6.80;4.87;;;7.70;99.90;;;;;;4991174;28;20957;-62
2022/02/03 12:00:03;;;;;;;9.10;4.80;;;7.80;99.90;;;;;;4991810;28;20476;-63
2022/02/03 12:18:44;;;;;;;8.03;4.67;;;8.00;99.90;;;;;;4989713;28;20432;-63
2022/02/03 12:20:55;;;;;;;6.97;4.80;;;8.00;99.90;;;;;;4984274;28;20657;-61
2022/02/03 12:26:23;;;;;;;7.60;5.33;;;8.00;99.90;;;;;;4992015;28;20478;-63
2022/02/03 12:29:01;;;;;;;6.50;4.77;;;7.90;99.90;;;;;;4986944;28;20421;-62
2022/02/03 12:39:54;;;;;;;8.13;5.70;;;7.90;99.90;;;;;;4984654;28;20557;-62
2022/02/03 12:45:02;;;;;;;5.07;4.50;;;8.00;99.90;;;;;;4981308;28;20432;-61
2022/02/03 12:47:27;;;;;;;9.07;6.03;;;8.10;99.90;;;;;;4985957;28;21031;-61
2022/02/03 12:49:53;;;;;;;6.00;4.23;;;8.10;99.90;;;;;;4982577;28;20444;-61
2022/02/03 12:52:29;;;;;;;6.03;4.63;;;8.20;99.90;;;;;;4984497;28;20492;-59
2022/02/03 12:54:55;;;;;;;5.07;4.00;;;8.10;99.90;;;;;;4993549;28;20189;-60
2022/02/03 12:57:33;;;;;;;5.83;4.10;;;8.10;99.90;;;;;;4983335;28;20932;-59
2022/02/03 13:00:19;;;;;;;5.23;4.23;;;8.10;99.90;;;;;;4980616;28;21046;-60
2022/02/03 13:02:57;;;;;;;6.93;4.50;;;8.00;99.90;;;;;;4971297;28;20838;-59
2022/02/03 13:05:26;;;;;;;19.93;6.97;;;8.00;99.90;;;;;;4972336;28;20492;-59
2022/02/03 13:07:57;;;;;;;6.57;4.67;;;8.00;99.90;;;;;;4976910;28;20991;-59
2022/02/03 13:10:26;;;;;;;6.90;4.17;;;8.00;99.90;;;;;;4984596;28;20471;-60
2022/02/03 13:13:06;;;;;;;5.43;4.57;;;8.00;99.90;;;;;;4996034;28;20464;-58
2022/02/03 13:15:40;;;;;;;6.60;4.20;;;8.00;99.90;;;;;;4990419;28;20447;-60
2022/02/03 13:18:33;;;;;;;6.00;4.50;;;8.10;99.90;;;;;;4981534;28;20434;-59
2022/02/03 13:21:07;;;;;;;7.53;4.77;;;8.00;99.90;;;;;;4983681;28;20447;-60
2022/02/03 13:23:36;;;;;;;5.10;4.40;;;8.10;99.90;;;;;;4977630;28;20460;-60
2022/02/03 13:26:13;;;;;;;5.30;4.40;;;8.10;99.90;;;;;;4979295;28;22090;-58
2022/02/03 13:29:02;;;;;;;4.90;4.40;;;8.10;99.90;;;;;;4997155;28;20479;-59
2022/02/03 13:32:12;;;;;;;12.83;5.50;;;8.10;99.90;;;;;;4983524;28;20535;-59
2022/02/03 13:37:19;;;;;;;5.00;4.03;;;8.10;99.90;;;;;;4978996;28;20968;-59
2022/02/03 13:40:16;;;;;;;5.23;4.27;;;8.10;99.90;;;;;;4977650;28;20682;-64
2022/02/03 13:42:51;;;;;;;4.50;3.97;;;8.10;99.90;;;;;;4985550;28;20475;-59
2022/02/03 13:45:20;;;;;;;13.30;5.70;;;8.10;99.90;;;;;;4972790;28;20459;-61
2022/02/03 13:47:48;;;;;;;6.40;4.80;;;8.00;99.90;;;;;;4996912;28;20458;-61
2022/02/03 13:50:28;;;;;;;5.77;4.13;;;8.00;99.90;;;;;;4977874;28;20440;-60
2022/02/03 13:53:02;;;;;;;5.53;4.53;;;8.00;99.90;;;;;;4978976;28;20575;-61
2022/02/03 14:18:11;;;;;;;;;;;;;;;;;;;;;
2022/02/03 14:28:23;;;;;;;8.73;4.93;;;7.60;99.90;;;;;;4976482;28;20431;-60
2022/02/03 14:30:53;;;;;;;9.00;5.43;;;7.60;99.90;;;;;;4979521;28;20467;-60
2022/02/03 14:33:27;;;;;;;7.10;4.53;;;7.50;99.90;;;;;;4980002;28;20460;-61
2022/02/03 14:35:58;;;;;;;6.63;5.33;;;7.50;99.90;;;;;;4983084;28;20967;-64
2022/02/03 14:38:30;;;;;;;7.63;5.20;;;7.60;99.90;;;;;;4977186;28;20906;-61
2022/02/03 14:41:12;;;;;;;7.27;5.40;;;7.60;99.90;;;;;;4982899;28;20431;-61
2022/02/03 14:43:39;;;;;;;7.73;5.50;;;7.60;99.90;;;;;;5019449;23;20502;-56
2022/02/03 14:46:06;;;;;;;10.80;5.93;;;7.60;99.90;;;;;;5010150;28;20440;-55
2022/02/03 14:48:32;;;;;;;7.40;5.40;;;7.60;99.90;;;;;;5000734;28;20828;-57
2022/02/03 14:51:00;;;;;;;10.40;5.50;;;7.60;99.90;;;;;;4993417;28;20527;-57
2022/02/03 14:53:36;;;;;;;7.60;5.77;;;7.60;99.90;;;;;;4998301;28;20203;-55
2022/02/03 14:58:46;;;;;;;8.50;6.17;;;7.50;99.90;;;;;;4998613;28;20564;-55
2022/02/03 15:01:13;;;;;;;5.77;4.73;;;7.50;99.90;;;;;;4995126;28;20427;-56
2022/02/03 15:03:38;;;;;;;7.93;5.60;;;7.50;99.90;;;;;;4991439;28;20295;-55
2022/02/03 15:06:09;;;;;;;16.10;5.53;;;7.40;99.90;;;;;;4996750;28;20779;-54
2022/02/03 15:13:40;;;;;;;13.03;6.17;;;7.50;99.90;;;;;;4993403;28;20526;-56
2022/02/03 15:16:07;;;;;;;9.63;5.80;;;7.40;99.90;;;;;;4990108;28;20176;-55
2022/02/03 15:18:33;;;;;;;10.10;6.67;;;7.40;99.90;;;;;;5000378;28;20435;-55
2022/02/03 15:20:59;;;;;;;10.27;6.30;;;7.40;99.90;;;;;;5003213;28;20484;-57
2022/02/03 15:23:25;;;;;;;12.47;6.07;;;7.30;99.90;;;;;;4996961;28;20296;-55
2022/02/03 15:25:51;;;;;;;8.60;5.50;;;7.30;99.90;;;;;;4996413;28;20518;-55
2022/02/03 15:28:18;;;;;;;7.00;5.30;;;7.20;99.90;;;;;;5000371;28;20518;-56
2022/02/03 15:30:44;;;;;;;8.63;5.57;;;7.20;99.90;;;;;;5003825;28;20439;-56
2022/02/03 15:33:10;;;;;;;11.33;5.97;;;7.10;99.90;;;;;;5005308;28;20443;-56
2022/02/03 15:35:45;;;;;;;8.27;5.87;;;7.10;99.90;;;;;;5000607;28;20493;-55
2022/02/03 15:38:15;;;;;;;8.20;5.67;;;7.00;99.90;;;;;;4996452;28;20183;-57
2022/02/03 15:40:41;;;;;;;9.40;6.03;;;7.00;99.90;;;;;;5006542;28;20462;-57
2022/02/03 15:43:14;;;;;;;8.80;5.90;;;6.90;99.90;;;;;;5002964;28;20454;-55
2022/02/03 15:45:44;;;;;;;9.80;6.57;;;6.90;99.90;;;;;;5009120;28;20516;-56
2022/02/03 15:48:30;;;;;;;8.90;5.90;;;6.80;99.90;;;;;;5012814;28;20438;-57
2022/02/03 16:13:12;;;;;;;8.00;5.70;;;6.60;99.90;;;;;;4996419;28;20555;-54
2022/02/03 16:18:04;;;;;;;11.63;7.43;;;6.40;99.90;;;;;;4999962;28;20441;-54
2022/02/03 16:20:37;;;;;;;16.33;7.10;;;6.40;99.90;;;;;;4994972;28;20567;-53
2022/02/03 16:23:30;;;;;;;10.97;7.33;;;6.40;99.90;;;;;;4999369;28;20691;-52
2022/02/03 16:55:00;;;;;;;12.83;8.23;;;6.00;99.90;;;;;;4999869;28;20543;-57
2022/02/03 16:57:27;;;;;;;16.40;8.67;;;6.00;99.90;;;;;;5002908;28;21116;-57
2022/02/03 17:00:04;;;;;;;17.50;10.63;;;6.00;99.90;;;;;;4994780;28;20936;-56
2022/02/03 17:02:30;;;;;;;14.83;9.50;;;5.90;99.90;;;;;;4995267;28;20423;-56
2022/02/03 17:04:57;;;;;;;16.53;9.40;;;5.90;99.90;;;;;;4995923;28;21313;-55
2022/02/03 17:07:23;;;;;;;16.00;9.53;;;5.90;99.90;;;;;;4993949;28;20177;-54
2022/02/03 17:09:49;;;;;;;15.30;9.57;;;5.80;99.90;;;;;;4996823;28;20432;-55
2022/02/03 17:12:19;;;;;;;17.33;10.00;;;5.80;99.90;;;;;;4996254;28;21241;-55
2022/02/03 17:14:45;;;;;;;17.83;9.77;;;5.70;99.90;;;;;;4994505;28;21098;-55
2022/02/03 17:17:12;;;;;;;19.27;9.80;;;5.70;99.90;;;;;;4997546;28;20727;-56
2022/02/03 17:19:39;;;;;;;22.03;10.80;;;5.70;99.90;;;;;;4996149;28;21097;-56
2022/02/03 17:22:05;;;;;;;16.90;9.30;;;5.70;99.90;;;;;;4995676;28;20435;-57
2022/02/03 17:24:34;;;;;;;15.93;10.40;;;5.70;99.90;;;;;;4998549;28;20570;-55
2022/02/03 17:27:07;;;;;;;17.67;10.00;;;5.60;99.90;;;;;;4996846;28;20509;-54
2022/02/03 17:30:04;;;;;;;15.07;9.27;;;5.60;99.90;;;;;;4993894;28;21097;-55
2022/02/03 17:44:54;;;;;;;20.70;9.57;;;5.60;99.90;;;;;;4999001;28;20435;-56
2022/02/03 18:10:28;;;;;;;16.60;10.27;;;5.30;99.90;;;;;;5001534;28;20439;-60
2022/02/03 18:52:53;;;;;;;21.23;11.20;;;5.00;99.90;;;;;;5014833;28;20531;-58
2022/02/03 18:55:31;;;;;;;18.93;11.57;;;5.00;99.90;;;;;;5014254;28;20811;-59
2022/02/03 18:58:30;;;;;;;23.93;12.30;;;5.00;99.90;;;;;;5016980;28;20489;-58
2022/02/03 19:01:15;;;;;;;26.47;13.60;;;5.00;99.90;;;;;;5013571;28;20455;-59
2022/02/03 19:14:54;;;;;;;19.03;9.67;;;4.90;99.90;;;;;;5007941;28;20522;-59
2022/02/03 20:08:16;;;;;;;20.83;11.47;;;4.60;99.90;;;;;;5019081;28;20983;-59
2022/02/03 20:10:46;;;;;;;19.30;11.10;;;4.70;99.90;;;;;;5021675;28;20434;-62
2022/02/03 20:13:12;;;;;;;19.67;12.40;;;4.60;99.90;;;;;;5018866;28;20444;-61
2022/02/03 20:15:40;;;;;;;15.50;10.37;;;4.60;99.90;;;;;;5019204;28;21078;-58
2022/02/03 20:18:11;;;;;;;20.80;11.37;;;4.60;99.90;;;;;;5036049;28;20299;-60
2022/02/03 20:20:38;;;;;;;19.40;10.60;;;4.60;99.90;;;;;;5019697;28;20468;-58
2022/02/03 20:23:08;;;;;;;23.63;12.10;;;4.50;99.90;;;;;;5021776;28;20534;-57
2022/02/03 20:25:35;;;;;;;18.60;11.00;;;4.50;99.90;;;;;;5024798;28;20433;-60
2022/02/03 20:28:02;;;;;;;28.33;12.77;;;4.50;99.90;;;;;;5019282;28;20461;-60
2022/02/03 20:30:28;;;;;;;21.13;11.53;;;4.50;99.90;;;;;;5019601;28;20497;-58
2022/02/03 20:32:54;;;;;;;22.60;11.37;;;4.40;99.90;;;;;;5019896;28;20448;-59
2022/02/03 20:35:20;;;;;;;20.97;12.10;;;4.50;99.90;;;;;;5021657;28;20898;-59
2022/02/03 20:37:46;;;;;;;18.33;8.97;;;4.40;99.90;;;;;;5040730;28;20534;-60
2022/02/03 20:40:12;;;;;;;12.27;8.00;;;4.40;99.90;;;;;;5004871;28;20387;-62
2022/02/03 20:42:39;;;;;;;11.00;6.23;;;4.40;99.90;;;;;;5013600;28;20446;-61
2022/02/03 20:45:05;;;;;;;11.27;6.27;;;4.40;99.90;;;;;;5020005;28;20435;-55
2022/02/03 20:47:31;;;;;;;15.83;8.93;;;4.30;99.90;;;;;;5025399;28;20451;-58
2022/02/03 20:50:03;;;;;;;13.27;7.90;;;4.30;99.90;;;;;;5016216;28;20439;-62
2022/02/03 20:52:28;;;;;;;17.23;9.20;;;4.30;99.90;;;;;;5015776;28;20605;-58
2022/02/03 20:54:54;;;;;;;18.73;9.10;;;4.30;99.90;;;;;;5016283;28;20423;-58
2022/02/03 20:57:20;;;;;;;18.10;10.17;;;4.30;99.90;;;;;;5023285;28;20189;-65
2022/02/03 21:03:00;;;;;;;30.30;13.83;;;4.30;99.90;;;;;;4997994;28;20298;-58
2022/02/03 21:05:25;;;;;;;27.60;14.90;;;4.20;99.90;;;;;;4990871;28;20990;-58
2022/02/03 21:07:52;;;;;;;24.70;13.70;;;4.20;99.90;;;;;;5004335;28;20526;-57
2022/02/03 21:10:24;;;;;;;31.00;14.67;;;4.20;99.90;;;;;;5010211;28;20211;-58
2022/02/03 21:12:52;;;;;;;22.07;13.60;;;4.20;99.90;;;;;;5012829;28;20516;-59
2022/02/03 21:15:23;;;;;;;22.57;12.90;;;4.10;99.90;;;;;;5009726;28;20462;-58
2022/02/03 21:17:50;;;;;;;21.10;12.47;;;4.10;99.90;;;;;;5012413;28;20452;-59
2022/02/03 21:20:18;;;;;;;23.90;11.23;;;4.10;99.90;;;;;;5007682;28;20604;-58
2022/02/03 21:22:44;;;;;;;19.37;11.33;;;4.10;99.90;;;;;;5013672;28;20451;-59
2022/02/03 21:25:27;;;;;;;20.00;11.30;;;4.00;99.90;;;;;;5023615;28;20451;-59
2022/02/03 21:27:55;;;;;;;17.93;11.80;;;4.00;99.90;;;;;;5045389;28;20417;-58
2022/02/03 21:30:23;;;;;;;22.30;12.23;;;3.90;99.90;;;;;;5021813;28;20442;-59
2022/02/03 21:32:50;;;;;;;19.43;11.20;;;3.90;99.90;;;;;;5018554;28;20463;-58
2022/02/03 21:35:19;;;;;;;21.93;11.43;;;3.80;99.90;;;;;;5015238;28;20466;-57
2022/02/03 21:37:45;;;;;;;23.27;11.13;;;3.80;99.90;;;;;;4999049;28;20412;-58
2022/02/03 21:40:12;;;;;;;22.50;12.50;;;3.80;99.90;;;;;;5012821;28;20517;-58
2022/02/03 21:42:37;;;;;;;27.13;13.63;;;3.80;99.90;;;;;;5019536;28;20579;-57
2022/02/03 21:45:05;;;;;;;22.27;11.80;;;3.80;99.90;;;;;;5021997;28;20863;-59
2022/02/03 21:47:31;;;;;;;20.13;11.77;;;3.80;99.90;;;;;;5021774;28;20189;-64
2022/02/03 21:49:59;;;;;;;21.80;11.83;;;3.80;99.90;;;;;;5033956;28;20441;-59
2022/02/03 21:52:33;;;;;;;20.17;11.97;;;3.80;99.90;;;;;;5035751;28;20179;-60
2022/02/03 21:54:59;;;;;;;22.67;11.53;;;3.80;99.90;;;;;;5019116;28;20437;-59
2022/02/03 21:57:25;;;;;;;23.33;13.07;;;3.80;99.90;;;;;;5021562;28;20432;-57
2022/02/03 21:59:52;;;;;;;22.13;12.87;;;3.70;99.90;;;;;;5020349;28;20463;-59
2022/02/03 22:02:18;;;;;;;21.77;12.07;;;3.70;99.90;;;;;;5010372;28;20775;-58
2022/02/03 22:04:44;;;;;;;21.83;11.87;;;3.70;99.90;;;;;;4999661;28;20459;-58
2022/02/03 22:07:10;;;;;;;24.97;12.10;;;3.60;99.90;;;;;;5004473;28;20478;-58
2022/02/03 22:09:37;;;;;;;17.27;9.37;;;3.60;99.90;;;;;;5011796;28;20450;-57
2022/02/03 22:12:05;;;;;;;12.60;7.77;;;3.50;99.90;;;;;;5023915;28;20177;-57
2022/02/03 22:14:31;;;;;;;8.83;5.70;;;3.50;99.90;;;;;;5015405;28;20506;-58
2022/02/03 22:16:59;;;;;;;10.23;6.40;;;3.40;99.90;;;;;;5008051;28;20479;-58
2022/02/03 22:19:25;;;;;;;11.93;6.60;;;3.30;99.90;;;;;;5012379;28;20454;-57
2022/02/03 22:22:24;;;;;;;11.70;6.00;;;3.30;99.90;;;;;;5025350;28;20498;-59
2022/02/03 22:24:59;;;;;;;12.10;6.17;;;3.20;99.90;;;;;;5016220;28;20512;-58
2022/02/03 22:27:42;;;;;;;10.03;5.90;;;3.20;99.90;;;;;;5017203;28;20839;-59
2022/02/03 22:38:41;;;;;;;15.03;7.47;;;3.00;99.90;;;;;;4998071;28;20459;-58
2022/02/03 22:48:51;;;;;;;12.73;6.43;;;3.10;99.90;;;;;;5016667;28;20438;-57
2022/02/03 22:51:17;;;;;;;10.43;5.37;;;3.10;99.90;;;;;;5018434;28;20230;-57
2022/02/03 22:53:44;;;;;;;11.67;6.40;;;3.00;99.90;;;;;;5012953;28;20609;-57
2022/02/03 22:56:12;;;;;;;11.83;6.57;;;3.00;99.90;;;;;;5009920;28;20274;-54
2022/02/03 23:01:23;;;;;;;13.83;8.00;;;3.00;99.90;;;;;;5009904;28;20955;-57
2022/02/03 23:03:49;;;;;;;15.07;8.83;;;2.90;99.90;;;;;;5012857;28;20431;-57
2022/02/03 23:06:16;;;;;;;15.90;8.77;;;2.90;99.90;;;;;;5015859;28;20419;-59
2022/02/03 23:09:04;;;;;;;13.90;7.87;;;2.90;99.90;;;;;;5007832;28;20816;-57
2022/02/03 23:22:14;;;;;;;15.43;8.17;;;2.70;99.90;;;;;;4997996;28;20171;-58
2022/02/03 23:24:45;;;;;;;19.90;7.97;;;2.60;99.90;;;;;;5001435;28;20455;-58
2022/02/03 23:29:40;;;;;;;15.23;8.17;;;2.60;99.90;;;;;;5017538;28;20440;-59
2022/02/03 23:32:09;;;;;;;12.87;8.50;;;2.60;99.90;;;;;;5010834;28;20441;-58
2022/02/03 23:34:35;;;;;;;16.60;8.57;;;2.50;99.90;;;;;;5016727;28;20439;-58
2022/02/03 23:37:03;;;;;;;19.50;8.60;;;2.50;99.90;;;;;;5019580;28;20516;-65
2022/02/03 23:39:47;;;;;;;18.87;8.63;;;2.40;99.90;;;;;;5010197;28;20816;-58
